Time;durP1;ratioP1;P1;durP2;ratioP2;P2;SDS_P1;SDS_P2;PMS_P1;PMS_P2;Temp;Humidity;BMP_temperature;BMP_pressure;BME280_temperature;BME280_humidity;BME280_pressure;Samples;Min_cycle;Max_cycle;Signal;HPM_P1;HPM_P2
2023/01/27 00:01:40;;;;;;;31.00;20.10;;;;;;;0.43;76.96;100915.55;83762;1270;3011510;-74
2023/01/27 00:04:12;;;;;;;34.80;20.30;;;;;;;0.42;76.88;100912.27;82414;1257;3025032;-73
2023/01/27 00:06:43;;;;;;;29.60;19.40;;;;;;;0.41;76.78;100910.88;83723;1258;3011567;-74
2023/01/27 00:09:15;;;;;;;31.90;20.40;;;;;;;0.42;77.18;100908.31;82392;1261;3025407;-74
2023/01/27 00:14:45;;;;;;;35.60;21.40;;;;;;;0.44;76.84;100910.05;82389;1260;3027551;-74
2023/01/27 00:17:18;;;;;;;32.50;20.90;;;;;;;0.43;76.95;100907.98;82395;1261;3026089;-74
2023/01/27 00:19:50;;;;;;;34.70;21.50;;;;;;;0.44;77.05;100911.96;83730;1261;3011604;-73
2023/01/27 00:25:20;;;;;;;31.30;19.30;;;;;;;0.42;77.04;100910.04;82381;1260;3027780;-74
2023/01/27 00:27:54;;;;;;;33.10;21.20;;;;;;;0.46;77.05;100912.14;82389;1261;3026302;-74
2023/01/27 00:30:28;;;;;;;29.80;20.10;;;;;;;0.47;76.94;100908.55;83727;1260;3013038;-73
2023/01/27 00:35:58;;;;;;;33.90;20.40;;;;;;;0.45;76.97;100912.98;82418;1256;3025776;-72
2023/01/27 00:38:32;;;;;;;34.00;21.20;;;;;;;0.45;77.11;100919.68;82311;1264;3026048;-72
2023/01/27 00:41:18;;;;;;;31.50;20.30;;;;;;;0.42;77.16;100916.05;83739;1270;3012898;-73
2023/01/27 00:43:52;;;;;;;31.90;20.10;;;;;;;0.41;77.29;100915.01;82425;1263;3025775;-74
2023/01/27 00:46:24;;;;;;;30.00;19.40;;;;;;;0.43;77.21;100918.80;83734;1261;3011558;-70
2023/01/27 00:48:56;;;;;;;33.50;20.40;;;;;;;0.40;76.63;100924.09;82297;1264;3029436;-73
2023/01/27 00:51:27;;;;;;;30.30;19.80;;;;;;;0.38;76.74;100926.98;83732;1258;3011566;-73
2023/01/27 00:54:01;;;;;;;34.90;20.80;;;;;;;0.37;76.71;100924.90;82414;1258;3026083;-74
2023/01/27 00:56:32;;;;;;;33.20;21.20;;;;;;;0.37;77.05;100927.82;83756;1261;3011920;-73
2023/01/27 00:59:05;;;;;;;34.40;21.10;;;;;;;0.38;77.09;100931.09;82427;1261;3026129;-73
2023/01/27 01:01:36;;;;;;;32.70;20.20;;;;;;;0.38;77.02;100929.04;83745;1258;3011611;-72
2023/01/27 01:04:10;;;;;;;32.40;19.40;;;;;;;0.39;77.26;100929.05;82419;1260;3025626;-73
2023/01/27 01:06:41;;;;;;;31.50;21.10;;;;;;;0.42;77.16;100926.00;83743;1261;3011394;-73
2023/01/27 01:09:13;;;;;;;33.10;21.30;;;;;;;0.46;77.23;100926.39;82378;1261;3026058;-73
2023/01/27 01:11:47;;;;;;;31.00;21.00;;;;;;;0.50;77.19;100923.88;83739;1261;3011456;-74
2023/01/27 01:14:23;;;;;;;33.20;21.50;;;;;;;0.54;77.29;100921.84;82412;1258;3026074;-73
2023/01/27 01:16:57;;;;;;;32.30;21.80;;;;;;;0.54;77.38;100918.59;83735;1261;3011397;-74
2023/01/27 01:19:31;;;;;;;32.80;21.70;;;;;;;0.52;77.36;100921.98;82384;1261;3025943;-72
2023/01/27 01:22:06;;;;;;;33.00;20.70;;;;;;;0.49;77.52;100925.56;82428;1256;3025803;-72
2023/01/27 01:24:42;;;;;;;32.50;20.70;;;;;;;0.46;77.51;100925.55;83724;1260;3011108;-73
2023/01/27 01:27:17;;;;;;;28.80;18.60;;;;;;;0.47;77.48;100928.28;82410;1258;3026218;-73
2023/01/27 01:29:55;;;;;;;28.80;19.90;;;;;;;0.48;77.65;100926.58;82416;1256;3025507;-74
2023/01/27 01:32:30;;;;;;;32.60;21.10;;;;;;;0.47;77.50;100924.17;83181;1262;3011326;-73
2023/01/27 01:35:01;;;;;;;32.90;20.50;;;;;;;0.45;77.49;100922.42;83743;1257;3013453;-71
2023/01/27 01:37:34;;;;;;;31.30;21.00;;;;;;;0.43;77.66;100923.61;82409;1260;3026029;-72
2023/01/27 01:40:14;;;;;;;34.70;21.40;;;;;;;0.41;77.43;100922.72;82431;1271;3025564;-73
2023/01/27 01:42:55;;;;;;;33.90;20.50;;;;;;;0.38;77.66;100924.73;82432;1257;3026224;-71
2023/01/27 01:45:57;;;;;;;29.90;18.70;;;;;;;0.35;77.81;100924.20;82418;1261;3026183;-74
2023/01/27 01:48:37;;;;;;;30.70;18.90;;;;;;;0.35;77.93;100922.66;82410;1257;3026665;-73
2023/01/27 01:51:12;;;;;;;29.80;19.50;;;;;;;0.37;78.01;100926.27;82423;1256;3025393;-73
2023/01/27 01:53:50;;;;;;;32.50;19.20;;;;;;;0.38;77.98;100924.40;83162;1257;3011524;-73
2023/01/27 01:56:27;;;;;;;32.40;20.80;;;;;;;0.40;78.07;100926.15;82413;1256;3026397;-73
2023/01/27 01:59:05;;;;;;;30.90;19.90;;;;;;;0.40;78.07;100924.09;83157;1258;3011561;-72
2023/01/27 02:01:37;;;;;;;34.60;21.70;;;;;;;0.39;78.28;100923.21;82433;1264;3025905;-71
2023/01/27 02:04:11;;;;;;;34.10;20.80;;;;;;;0.36;78.33;100922.31;83704;1260;3011171;-73
2023/01/27 02:06:53;;;;;;;32.90;20.90;;;;;;;0.34;78.32;100918.86;82462;1256;3026574;-74
2023/01/27 02:09:25;;;;;;;35.30;20.50;;;;;;;0.35;78.48;100920.92;82421;1261;3027418;-74
2023/01/27 02:11:57;;;;;;;30.10;20.00;;;;;;;0.36;78.47;100920.95;83667;1264;3013014;-72
2023/01/27 02:14:30;;;;;;;31.90;21.00;;;;;;;0.38;78.47;100926.45;82405;1258;3026398;-73
2023/01/27 02:17:01;;;;;;;31.80;21.60;;;;;;;0.41;78.55;100925.82;83777;1261;3011865;-74
2023/01/27 02:19:40;;;;;;;34.30;22.10;;;;;;;0.44;78.55;100925.16;82390;1257;3025345;-74
2023/01/27 02:22:25;;;;;;;35.60;23.00;;;;;;;0.46;78.55;100923.98;82400;1260;3025195;-73
2023/01/27 02:25:03;;;;;;;36.30;22.90;;;;;;;0.44;78.24;100920.53;82426;1257;3025879;-73
2023/01/27 02:27:35;;;;;;;40.90;23.90;;;;;;;0.41;77.90;100922.03;82416;1261;3025072;-72
2023/01/27 02:30:11;;;;;;;32.90;21.00;;;;;;;0.40;78.29;100922.54;83746;1257;3011651;-72
2023/01/27 02:32:43;;;;;;;33.10;19.90;;;;;;;0.38;78.32;100925.08;82434;1261;3026162;-72
2023/01/27 02:35:17;;;;;;;33.10;21.50;;;;;;;0.38;78.30;100925.94;83733;1260;3011604;-73
2023/01/27 02:37:56;;;;;;;34.80;22.60;;;;;;;0.39;78.33;100932.66;82435;1256;3025817;-73
2023/01/27 02:40:32;;;;;;;34.60;22.10;;;;;;;0.41;78.29;100931.13;82540;1258;3026009;-74
2023/01/27 02:43:06;;;;;;;40.60;23.50;;;;;;;0.42;78.31;100930.97;83231;1259;3012682;-73
2023/01/27 02:45:37;;;;;;;38.00;22.90;;;;;;;0.42;78.46;100928.40;83840;1259;3011432;-74
2023/01/27 02:48:11;;;;;;;34.80;22.40;;;;;;;0.41;78.47;100927.02;82489;1260;3026350;-73
2023/01/27 02:50:42;;;;;;;33.10;20.40;;;;;;;0.42;78.66;100928.40;83811;1258;3011837;-73
2023/01/27 02:53:14;;;;;;;34.70;21.60;;;;;;;0.41;78.22;100927.87;82542;1257;3026511;-74
2023/01/27 02:55:45;;;;;;;34.40;23.00;;;;;;;0.41;78.14;100927.35;83843;1258;3011649;-74
2023/01/27 02:58:20;;;;;;;38.40;22.30;;;;;;;0.41;78.10;100930.27;82502;1258;3024898;-74
2023/01/27 03:00:53;;;;;;;31.80;21.60;;;;;;;0.40;78.10;100925.29;83279;1258;3012906;-74
2023/01/27 03:03:25;;;;;;;36.90;23.10;;;;;;;0.39;77.97;100926.98;83801;1258;3012941;-74
2023/01/27 03:05:59;;;;;;;37.50;22.60;;;;;;;0.37;77.94;100927.14;82412;1258;3025347;-72
2023/01/27 03:08:32;;;;;;;33.70;21.10;;;;;;;0.34;77.81;100930.88;83835;1259;3013377;-72
2023/01/27 03:11:04;;;;;;;33.40;21.00;;;;;;;0.33;77.90;100936.36;82540;1258;3025228;-74
2023/01/27 03:13:36;;;;;;;35.50;21.70;;;;;;;0.33;77.98;100937.72;83818;1260;3011501;-74
2023/01/27 03:19:00;;;;;;;34.40;21.30;;;;;;;0.35;77.97;100924.36;82503;1257;3025919;-74
2023/01/27 03:21:34;;;;;;;34.40;21.60;;;;;;;0.34;78.29;100928.98;83825;1258;3011424;-72
2023/01/27 03:24:08;;;;;;;34.00;21.40;;;;;;;0.32;78.19;100933.26;82469;1270;3027431;-72
2023/01/27 03:26:40;;;;;;;33.90;20.30;;;;;;;0.32;78.13;100937.37;83838;1259;3011649;-74
2023/01/27 03:32:15;;;;;;;33.60;20.70;;;;;;;0.31;78.03;100935.13;82235;1263;3025598;-74
2023/01/27 03:34:46;;;;;;;31.40;20.50;;;;;;;0.33;78.18;100937.20;83839;1260;3012704;-71
2023/01/27 03:46:17;;;;;;;33.40;21.30;;;;;;;0.27;78.20;100939.20;82515;1256;3026526;-73
2023/01/27 03:48:55;;;;;;;30.20;19.00;;;;;;;0.25;78.20;100942.42;82517;1257;3024988;-71
2023/01/27 03:51:27;;;;;;;31.90;20.80;;;;;;;0.26;78.03;100943.98;82532;1257;3024997;-74
2023/01/27 03:53:59;;;;;;;30.80;20.00;;;;;;;0.27;78.35;100947.77;83843;1259;3012016;-73
2023/01/27 03:56:34;;;;;;;33.50;22.70;;;;;;;0.27;78.36;100942.27;82544;1258;3025789;-74
2023/01/27 03:59:07;;;;;;;30.60;20.50;;;;;;;0.26;78.36;100941.41;83299;1259;3012773;-74
2023/01/27 04:01:38;;;;;;;33.00;21.70;;;;;;;0.26;78.29;100944.48;83811;1257;3013498;-72
2023/01/27 04:07:03;;;;;;;29.80;19.70;;;;;;;0.26;78.32;100944.15;82508;1259;3024940;-72
2023/01/27 04:09:37;;;;;;;30.50;19.10;;;;;;;0.26;78.26;100950.16;83847;1259;3011934;-72
2023/01/27 04:12:10;;;;;;;29.40;20.20;;;;;;;0.27;78.27;100953.27;82509;1257;3025964;-71
2023/01/27 04:14:41;;;;;;;30.60;20.10;;;;;;;0.29;78.09;100955.02;83825;1258;3011472;-73
2023/01/27 04:17:17;;;;;;;32.00;20.70;;;;;;;0.28;77.85;100956.36;82524;1257;3026359;-71
2023/01/27 04:19:49;;;;;;;34.30;20.90;;;;;;;0.27;78.20;100958.41;82523;1256;3025590;-72
2023/01/27 04:22:25;;;;;;;30.70;21.40;;;;;;;0.24;78.11;100961.13;83098;1261;3011621;-74
2023/01/27 04:24:56;;;;;;;31.90;20.40;;;;;;;0.22;78.35;100961.27;83843;1256;3011650;-73
2023/01/27 04:27:28;;;;;;;32.10;19.70;;;;;;;0.20;78.41;100958.33;82500;1258;3025113;-73
2023/01/27 04:30:00;;;;;;;29.70;19.50;;;;;;;0.22;78.15;100960.07;83847;1256;3011553;-71
2023/01/27 04:32:32;;;;;;;31.10;21.00;;;;;;;0.26;78.21;100962.18;82492;1260;3026030;-73
2023/01/27 04:35:05;;;;;;;31.40;20.80;;;;;;;0.28;78.29;100961.51;83817;1258;3013655;-74
2023/01/27 04:37:38;;;;;;;30.10;20.50;;;;;;;0.29;78.27;100958.27;82401;1256;3025934;-75
2023/01/27 04:40:14;;;;;;;32.30;21.70;;;;;;;0.27;78.50;100959.27;83845;1256;3011586;-74
2023/01/27 04:42:53;;;;;;;32.90;19.80;;;;;;;0.25;78.35;100955.45;82500;1257;3025976;-74
2023/01/27 04:45:25;;;;;;;30.80;19.40;;;;;;;0.24;78.04;100956.83;82509;1259;3026755;-73
2023/01/27 04:47:57;;;;;;;33.10;21.10;;;;;;;0.22;78.25;100960.40;83827;1259;3012986;-73
2023/01/27 04:50:30;;;;;;;33.80;22.00;;;;;;;0.22;78.71;100961.61;82534;1258;3024685;-72
2023/01/27 04:53:01;;;;;;;34.00;21.60;;;;;;;0.21;78.53;100966.73;83788;1256;3011478;-72
2023/01/27 04:55:35;;;;;;;37.00;23.20;;;;;;;0.22;78.78;100968.64;82527;1256;3026358;-73
2023/01/27 04:58:09;;;;;;;40.20;25.20;;;;;;;0.23;78.82;100970.36;83845;1256;3012934;-75
2023/01/27 05:00:41;;;;;;;42.90;24.90;;;;;;;0.23;78.82;100975.02;82523;1256;3026387;-73
2023/01/27 05:03:12;;;;;;;32.60;21.10;;;;;;;0.26;78.84;100976.42;83814;1256;3011476;-74
2023/01/27 05:05:45;;;;;;;37.10;23.30;;;;;;;0.28;78.80;100976.61;82490;1256;3025873;-74
2023/01/27 05:08:18;;;;;;;39.30;25.80;;;;;;;0.30;78.77;100978.71;83819;1256;3011258;-75
2023/01/27 05:10:54;;;;;;;41.00;26.00;;;;;;;0.31;78.47;100979.58;82556;1256;3026275;-73
2023/01/27 05:13:27;;;;;;;42.40;26.30;;;;;;;0.33;78.46;100979.25;83111;1258;3011573;-72
2023/01/27 05:16:09;;;;;;;38.60;25.30;;;;;;;0.36;78.65;100983.25;83850;1260;3011589;-70
2023/01/27 05:18:42;;;;;;;42.10;27.40;;;;;;;0.36;78.54;100980.67;82558;1256;3026037;-72
2023/01/27 05:21:20;;;;;;;38.90;25.50;;;;;;;0.34;78.56;100983.72;82405;1270;3024482;-73
2023/01/27 05:23:55;;;;;;;38.90;24.80;;;;;;;0.33;78.69;100986.30;82518;1259;3026124;-72
2023/01/27 05:26:27;;;;;;;36.00;23.10;;;;;;;0.30;78.58;100985.39;83831;1261;3011334;-72
2023/01/27 05:29:00;;;;;;;39.00;25.20;;;;;;;0.32;78.71;100994.69;82383;1258;3027900;-73
2023/01/27 05:31:31;;;;;;;39.70;24.70;;;;;;;0.35;78.52;100997.98;83836;1256;3011580;-73
2023/01/27 05:34:04;;;;;;;43.90;24.60;;;;;;;0.38;78.31;101001.96;82499;1256;3026240;-73
2023/01/27 05:36:35;;;;;;;37.10;25.10;;;;;;;0.37;78.31;101002.14;83869;1259;3011312;-73
2023/01/27 05:39:10;;;;;;;41.30;25.10;;;;;;;0.33;78.36;100998.66;82509;1258;3026266;-72
2023/01/27 05:41:42;;;;;;;38.90;24.70;;;;;;;0.30;78.49;101005.64;83293;1256;3011574;-74
2023/01/27 05:44:14;;;;;;;44.60;24.50;;;;;;;0.30;78.58;101008.56;83857;1256;3011594;-74
2023/01/27 05:46:47;;;;;;;42.60;25.20;;;;;;;0.31;78.49;101005.65;82505;1259;3027552;-72
2023/01/27 05:49:19;;;;;;;42.40;25.10;;;;;;;0.31;78.38;101004.95;83786;1256;3011476;-72
2023/01/27 05:51:51;;;;;;;40.90;25.40;;;;;;;0.31;78.48;100999.46;82498;1256;3025600;-74
2023/01/27 05:54:22;;;;;;;40.10;24.90;;;;;;;0.32;78.55;101003.44;83830;1256;3011604;-74
2023/01/27 05:56:57;;;;;;;41.10;24.90;;;;;;;0.32;78.39;101008.07;82540;1256;3025482;-74
2023/01/27 05:59:30;;;;;;;44.10;26.00;;;;;;;0.29;78.39;101013.17;83256;1256;3011757;-74
2023/01/27 06:02:01;;;;;;;39.50;23.50;;;;;;;0.28;78.26;101012.98;83742;1261;3011281;-74
2023/01/27 06:04:37;;;;;;;39.30;22.60;;;;;;;0.27;78.44;101011.09;82517;1256;3024876;-74
2023/01/27 06:07:13;;;;;;;33.40;22.10;;;;;;;0.26;78.56;101012.96;83246;1256;3013478;-72
2023/01/27 06:09:47;;;;;;;36.20;23.20;;;;;;;0.25;78.72;101014.49;83244;1256;3011591;-72
2023/01/27 06:12:19;;;;;;;40.00;24.10;;;;;;;0.27;78.89;101020.35;83816;1257;3011555;-72
2023/01/27 06:14:51;;;;;;;40.50;26.10;;;;;;;0.27;78.97;101029.28;82521;1258;3025806;-72
2023/01/27 06:17:22;;;;;;;39.50;25.20;;;;;;;0.29;78.98;101033.94;83817;1256;3012862;-71
2023/01/27 06:19:57;;;;;;;41.90;26.60;;;;;;;0.28;78.97;101037.19;82486;1258;3025310;-72
2023/01/27 06:22:32;;;;;;;39.10;23.30;;;;;;;0.25;79.01;101042.81;83270;1256;3011624;-71
2023/01/27 06:25:09;;;;;;;43.20;24.30;;;;;;;0.23;78.92;101043.46;83258;1256;3011510;-72
2023/01/27 06:27:42;;;;;;;41.90;26.30;;;;;;;0.23;79.05;101047.41;83278;1258;3011613;-72
2023/01/27 06:30:16;;;;;;;44.20;25.90;;;;;;;0.26;79.22;101046.95;83811;1256;3011468;-72
2023/01/27 06:32:56;;;;;;;45.80;26.00;;;;;;;0.27;79.26;101053.13;82490;1257;3026307;-72
2023/01/27 06:35:33;;;;;;;44.60;26.50;;;;;;;0.25;79.19;101053.27;82362;1260;3027704;-73
2023/01/27 06:38:11;;;;;;;45.70;27.50;;;;;;;0.21;79.02;101056.13;82504;1258;3026426;-74
2023/01/27 06:40:45;;;;;;;41.30;25.00;;;;;;;0.18;79.20;101055.23;82484;1256;3025897;-73
2023/01/27 06:43:16;;;;;;;40.20;24.70;;;;;;;0.17;79.21;101053.67;83815;1259;3011601;-73
2023/01/27 06:45:51;;;;;;;40.00;25.20;;;;;;;0.19;79.14;101056.09;82496;1257;3025950;-72
2023/01/27 06:48:26;;;;;;;42.20;25.50;;;;;;;0.22;79.32;101059.92;83259;1259;3011964;-73
2023/01/27 06:50:59;;;;;;;46.90;27.10;;;;;;;0.25;79.45;101058.95;83666;1260;3013008;-72
2023/01/27 06:53:39;;;;;;;42.60;25.90;;;;;;;0.28;79.55;101062.07;82525;1256;3026227;-73
2023/01/27 06:56:14;;;;;;;46.70;27.10;;;;;;;0.28;79.40;101062.76;82484;1259;3025856;-73
2023/01/27 06:58:49;;;;;;;44.00;27.40;;;;;;;0.30;79.49;101064.84;83250;1259;3011619;-73
2023/01/27 07:01:23;;;;;;;45.90;27.30;;;;;;;0.30;79.43;101066.91;83271;1256;3011508;-73
2023/01/27 07:03:56;;;;;;;49.80;29.30;;;;;;;0.29;79.46;101066.02;83817;1256;3011922;-73
2023/01/27 07:06:29;;;;;;;47.10;27.20;;;;;;;0.29;79.62;101065.16;82378;1257;3026548;-71
2023/01/27 07:09:09;;;;;;;48.80;28.60;;;;;;;0.35;79.67;101062.68;82491;1256;3026272;-72
2023/01/27 07:11:43;;;;;;;54.50;30.20;;;;;;;0.38;79.74;101064.96;82511;1256;3026525;-73
2023/01/27 07:14:14;;;;;;;57.10;30.90;;;;;;;0.43;79.72;101062.98;83788;1256;3011514;-72
2023/01/27 07:16:49;;;;;;;57.20;31.40;;;;;;;0.47;79.64;101066.11;82459;1257;3026420;-73
2023/01/27 07:19:22;;;;;;;64.80;32.80;;;;;;;0.50;79.26;101060.33;82478;1256;3025691;-72
2023/01/27 07:21:53;;;;;;;58.50;33.40;;;;;;;0.53;79.04;101057.10;83817;1255;3011915;-73
2023/01/27 07:24:31;;;;;;;55.30;30.50;;;;;;;0.57;79.00;101062.99;82508;1259;3026107;-74
2023/01/27 07:27:07;;;;;;;53.00;30.40;;;;;;;0.59;78.81;101063.02;82488;1259;3025732;-73
2023/01/27 07:29:41;;;;;;;54.40;32.00;;;;;;;0.64;78.66;101062.58;82460;1259;3026620;-72
2023/01/27 07:32:14;;;;;;;57.40;31.70;;;;;;;0.68;78.65;101065.89;83822;1258;3011460;-72
2023/01/27 07:34:46;;;;;;;58.00;33.20;;;;;;;0.74;78.52;101067.52;82516;1256;3026345;-72
2023/01/27 07:37:22;;;;;;;56.50;33.80;;;;;;;0.78;78.34;101068.95;83242;1258;3011177;-73
2023/01/27 07:39:54;;;;;;;56.30;32.70;;;;;;;0.80;77.96;101066.58;83349;1254;3648528;-74
2023/01/27 07:42:26;;;;;;;59.40;34.10;;;;;;;0.80;77.88;101066.92;82518;1259;3026829;-74
2023/01/27 07:45:02;;;;;;;56.30;32.00;;;;;;;0.85;78.00;101066.46;83335;1258;3011547;-73
2023/01/27 07:47:36;;;;;;;59.40;34.20;;;;;;;0.92;77.63;101065.86;83829;1258;3011515;-74
2023/01/27 07:50:12;;;;;;;56.90;34.60;;;;;;;1.00;77.63;101068.19;82515;1258;3025654;-73
2023/01/27 07:52:45;;;;;;;62.80;36.00;;;;;;;1.06;77.08;101069.81;82521;1258;3026311;-73
2023/01/27 07:55:16;;;;;;;55.10;33.20;;;;;;;1.14;77.23;101067.15;83812;1258;3011490;-73
2023/01/27 07:57:50;;;;;;;55.00;33.70;;;;;;;1.17;76.49;101069.60;82395;1257;3024850;-74
2023/01/27 08:00:23;;;;;;;59.20;33.80;;;;;;;1.22;76.73;101071.02;83846;1256;3011485;-72
2023/01/27 08:02:56;;;;;;;61.90;34.50;;;;;;;1.27;76.40;101071.77;82511;1254;3026453;-71
2023/01/27 08:05:34;;;;;;;54.30;31.90;;;;;;;1.31;76.36;101068.04;83262;1256;3011546;-73
2023/01/27 08:08:07;;;;;;;60.40;33.40;;;;;;;1.36;76.27;101070.33;82487;1256;3026543;-72
2023/01/27 08:10:40;;;;;;;57.00;35.10;;;;;;;1.41;75.77;101073.48;83828;1258;3011561;-72
2023/01/27 08:13:13;;;;;;;63.90;35.50;;;;;;;1.44;75.75;101075.23;82472;1256;3025577;-72
2023/01/27 08:15:44;;;;;;;62.70;36.10;;;;;;;1.48;75.37;101072.70;83789;1255;3011712;-74
2023/01/27 08:18:17;;;;;;;67.10;38.50;;;;;;;1.49;75.66;101070.13;82466;1256;3024759;-73
2023/01/27 08:20:53;;;;;;;58.70;35.00;;;;;;;1.53;75.35;101074.80;83192;1256;3011545;-73
2023/01/27 08:23:28;;;;;;;57.80;33.80;;;;;;;1.56;75.07;101077.06;82471;1256;3026203;-74
2023/01/27 08:26:01;;;;;;;58.20;33.70;;;;;;;1.55;74.92;101079.30;83693;1258;3011610;-72
2023/01/27 08:28:36;;;;;;;60.20;35.50;;;;;;;1.56;74.68;101078.78;82347;1255;3025815;-72
2023/01/27 08:31:14;;;;;;;58.30;33.50;;;;;;;1.55;74.55;101083.76;82512;1255;3026072;-72
2023/01/27 08:33:50;;;;;;;56.20;33.00;;;;;;;1.56;74.58;101085.33;82481;1256;3024899;-72
2023/01/27 08:36:23;;;;;;;54.60;32.70;;;;;;;1.61;74.40;101087.60;82520;1255;3026293;-74
2023/01/27 08:38:54;;;;;;;57.50;34.50;;;;;;;1.63;74.34;101093.14;83814;1256;3013374;-74
2023/01/27 08:41:27;;;;;;;62.90;35.00;;;;;;;1.64;74.23;101091.60;82356;1259;3025846;-74
2023/01/27 08:43:58;;;;;;;54.80;32.20;;;;;;;1.68;73.79;101093.70;83794;1255;3011387;-74
2023/01/27 08:46:31;;;;;;;58.00;33.80;;;;;;;1.72;73.91;101094.23;82491;1255;3026089;-70
2023/01/27 08:49:06;;;;;;;60.60;34.90;;;;;;;1.75;73.59;101097.72;82404;1260;3026361;-73
2023/01/27 08:51:37;;;;;;;65.80;35.50;;;;;;;1.76;73.24;101096.02;83842;1256;3011598;-72
2023/01/27 08:54:09;;;;;;;59.50;34.70;;;;;;;1.82;73.71;101088.66;82448;1256;3026302;-71
2023/01/27 08:56:40;;;;;;;57.00;32.80;;;;;;;1.91;73.93;101093.91;83819;1256;3013013;-73
2023/01/27 08:59:15;;;;;;;55.50;31.50;;;;;;;1.95;73.20;101092.23;82458;1255;3025733;-71
2023/01/27 09:01:54;;;;;;;50.90;29.40;;;;;;;2.01;73.16;101101.40;83278;1255;3013004;-72
2023/01/27 09:04:28;;;;;;;53.10;30.40;;;;;;;2.10;72.90;101098.55;82488;1256;3025816;-72
2023/01/27 09:07:00;;;;;;;50.30;29.10;;;;;;;2.21;73.08;101101.74;83843;1255;3011557;-74
2023/01/27 09:09:34;;;;;;;52.80;30.70;;;;;;;2.33;71.88;101104.24;82481;1254;3025737;-74
2023/01/27 09:12:11;;;;;;;47.90;27.70;;;;;;;2.40;72.13;101102.39;83104;1258;3013552;-73
2023/01/27 09:14:45;;;;;;;39.90;25.20;;;;;;;2.49;70.73;101102.46;83132;1258;3012959;-71
2023/01/27 09:17:18;;;;;;;45.90;28.00;;;;;;;2.53;70.33;101101.11;83767;1254;3011460;-74
2023/01/27 09:19:50;;;;;;;88.30;36.10;;;;;;;2.57;70.32;101097.17;82486;1256;3026467;-70
2023/01/27 09:22:22;;;;;;;107.30;46.10;;;;;;;2.56;68.58;101100.27;83787;1255;3011496;-71
2023/01/27 09:24:53;;;;;;;82.80;45.20;;;;;;;2.56;69.37;101094.23;82499;1256;3026108;-73
2023/01/27 09:27:24;;;;;;;;;;;;;;;2.56;69.04;101095.80;83791;1255;3013316;-72
2023/01/27 09:29:55;;;;;;;;;;;;;;;2.50;68.77;101101.09;82501;1255;3025147;-73
2023/01/27 09:32:26;;;;;;;42.00;25.90;;;;;;;2.41;68.23;101102.23;83787;1255;3011549;-74
2023/01/27 09:34:58;;;;;;;42.10;25.40;;;;;;;2.40;69.34;101100.67;82503;1255;3026341;-73
2023/01/27 09:37:29;;;;;;;39.10;24.00;;;;;;;2.43;69.26;101097.77;83810;1255;3011597;-74
2023/01/27 09:40:11;;;;;;;29.50;19.60;;;;;;;2.44;68.49;101098.29;82502;1255;3026040;-72
2023/01/27 09:43:19;;;;;;;40.50;24.60;;;;;;;2.38;68.53;101103.07;82443;1256;3025532;-73
2023/01/27 09:46:05;;;;;;;43.10;26.30;;;;;;;2.36;68.85;101105.29;82531;1256;3025939;-72
2023/01/27 09:48:52;;;;;;;45.20;27.30;;;;;;;2.38;69.20;101104.63;82471;1256;3024683;-72
2023/01/27 09:51:30;;;;;;;42.30;26.50;;;;;;;2.43;69.51;101102.08;82466;1258;3025792;-72
2023/01/27 09:54:39;;;;;;;40.50;23.10;;;;;;;2.48;69.51;101100.40;82520;1255;3025677;-72
2023/01/27 09:57:16;;;;;;;41.90;24.80;;;;;;;2.51;69.12;101100.59;82444;1256;3025510;-73
2023/01/27 10:00:23;;;;;;;41.50;23.70;;;;;;;2.50;68.60;101100.75;82509;1255;3024340;-70
2023/01/27 10:03:26;;;;;;;54.30;25.70;;;;;;;2.44;68.51;101098.11;82505;1256;3026269;-73
2023/01/27 10:06:27;;;;;;;52.60;25.70;;;;;;;2.38;68.25;101095.66;82515;1256;3027392;-73
2023/01/27 10:09:34;;;;;;;58.60;26.30;;;;;;;2.35;68.33;101098.40;82487;1254;3026208;-73
2023/01/27 10:12:20;;;;;;;73.70;27.50;;;;;;;2.33;68.61;101100.63;82458;1256;3025221;-73
2023/01/27 10:15:04;;;;;;;42.80;24.00;;;;;;;2.38;68.84;101105.83;82515;1256;3025958;-73
2023/01/27 10:17:43;;;;;;;36.30;22.10;;;;;;;2.41;68.35;101104.30;82474;1256;3025975;-73
2023/01/27 10:20:28;;;;;;;38.80;20.90;;;;;;;2.39;67.73;101102.22;82507;1256;3029891;-72
2023/01/27 10:23:21;;;;;;;44.20;22.70;;;;;;;2.39;68.01;101107.05;82483;1255;3025598;-73
2023/01/27 10:25:58;;;;;;;35.70;22.00;;;;;;;2.39;68.14;101111.17;82502;1256;3025685;-73
2023/01/27 10:28:31;;;;;;;37.50;23.00;;;;;;;2.39;68.25;101112.38;82435;1259;3026209;-74
2023/01/27 10:31:06;;;;;;;43.40;23.50;;;;;;;2.39;68.37;101113.58;83848;1257;3011484;-73
2023/01/27 10:33:53;;;;;;;43.30;24.20;;;;;;;2.41;68.57;101116.86;82501;1263;3025566;-72
2023/01/27 10:36:29;;;;;;;41.20;24.90;;;;;;;2.40;68.61;101123.77;82453;1256;3026419;-73
2023/01/27 10:39:15;;;;;;;41.80;24.20;;;;;;;2.40;68.57;101128.39;82453;1259;3025553;-73
2023/01/27 10:41:54;;;;;;;43.20;26.10;;;;;;;2.37;68.01;101125.62;82467;1255;3026122;-73
2023/01/27 10:44:48;;;;;;;43.90;26.90;;;;;;;2.35;68.46;101130.77;82471;1255;3025771;-73
2023/01/27 10:47:30;;;;;;;46.20;26.50;;;;;;;2.37;68.80;101130.79;82468;1256;3025649;-74
2023/01/27 10:50:04;;;;;;;48.20;27.60;;;;;;;2.36;68.68;101133.71;82523;1263;3024666;-73
2023/01/27 10:52:45;;;;;;;50.50;26.30;;;;;;;2.32;68.79;101133.50;82510;1256;3026131;-73
2023/01/27 10:55:20;;;;;;;41.70;24.80;;;;;;;2.29;68.81;101136.40;82470;1255;3025670;-73
2023/01/27 10:57:57;;;;;;;42.10;26.40;;;;;;;2.28;68.73;101138.63;82361;1255;3025673;-74
2023/01/27 11:00:33;;;;;;;43.10;26.30;;;;;;;2.26;68.64;101136.55;82504;1256;3025475;-73
2023/01/27 11:03:09;;;;;;;45.40;27.80;;;;;;;2.25;68.76;101132.92;82443;1255;3025511;-74
2023/01/27 11:05:44;;;;;;;46.20;27.30;;;;;;;2.25;69.17;101135.85;82510;1258;3025676;-73
2023/01/27 11:08:25;;;;;;;46.00;27.20;;;;;;;2.26;69.17;101135.52;83104;1259;3011346;-73
2023/01/27 11:13:51;;;;;;;51.60;29.60;;;;;;;2.32;69.90;101126.96;82485;1255;3025601;-73
2023/01/27 11:16:25;;;;;;;55.70;30.40;;;;;;;2.35;69.74;101122.50;83801;1256;3011777;-72
2023/01/27 11:19:00;;;;;;;51.10;31.10;;;;;;;2.36;70.08;101115.96;82480;1255;3027005;-73
2023/01/27 11:21:35;;;;;;;47.70;27.60;;;;;;;2.40;70.30;101111.35;82470;1255;3025520;-72
2023/01/27 11:24:21;;;;;;;44.30;25.60;;;;;;;2.47;69.92;101111.23;83082;1256;3011343;-73
2023/01/27 11:27:05;;;;;;;42.30;25.60;;;;;;;2.56;69.95;101106.13;82483;1255;3025887;-73
2023/01/27 11:29:47;;;;;;;41.60;25.30;;;;;;;2.67;70.06;101104.13;82468;1256;3025799;-73
2023/01/27 11:32:33;;;;;;;39.80;23.50;;;;;;;2.75;69.75;101107.61;82487;1256;3025654;-73
2023/01/27 11:35:08;;;;;;;35.10;22.20;;;;;;;2.83;69.55;101105.08;82499;1256;3026668;-73
2023/01/27 11:37:42;;;;;;;37.30;23.60;;;;;;;2.90;69.14;101104.60;83215;1256;3011485;-73
2023/01/27 11:40:21;;;;;;;38.80;23.50;;;;;;;2.93;69.14;101103.05;82493;1259;3026992;-73
2023/01/27 11:42:54;;;;;;;44.20;26.80;;;;;;;2.94;69.07;101105.31;82495;1256;3026380;-74
2023/01/27 11:45:25;;;;;;;44.10;26.90;;;;;;;2.93;68.97;101107.02;83847;1256;3011587;-74
2023/01/27 11:47:59;;;;;;;46.40;28.00;;;;;;;2.92;69.20;101104.44;82357;1259;3026452;-74
2023/01/27 11:50:34;;;;;;;45.50;28.30;;;;;;;2.88;69.34;101100.45;83788;1255;3011479;-73
2023/01/27 11:53:22;;;;;;;46.30;28.30;;;;;;;2.87;69.45;101100.44;82408;1261;3026360;-73
2023/01/27 11:55:55;;;;;;;48.10;29.60;;;;;;;2.85;69.11;101100.95;82516;1258;3026303;-72
2023/01/27 11:58:29;;;;;;;47.90;28.60;;;;;;;2.81;69.40;101104.56;83800;1256;3011453;-72
2023/01/27 12:01:05;;;;;;;43.90;26.90;;;;;;;2.83;69.63;101099.56;82497;1256;3026800;-74
2023/01/27 12:03:49;;;;;;;43.70;27.70;;;;;;;2.83;69.34;101100.42;82471;1259;3025644;-73
2023/01/27 12:06:31;;;;;;;45.90;27.60;;;;;;;2.87;69.75;101101.14;82337;1261;3025139;-73
2023/01/27 12:09:04;;;;;;;45.00;26.80;;;;;;;2.91;69.35;101099.95;82472;1257;3025950;-72